Lewisville, Indiana
Current Conditions -  °F | °C
As of 1:53 AM on Monday 24 Nov 2014 (Local Time) from KGEZ Reporting Station
Light Rain Light Rain  
Wind Chill: 58°   Ceiling: 1300
Heat Index: 58°   Visibility: 10mi
Dew Point: 54°   Wind: 18mph
Humidity: 87%   Direction: 220°SW
Pressure: 29.25"   Gusts: NA
Location:  39.81°N, 85.35°W
Report Text: KGEZ 240653Z AUTO 22016KT 10SM -RA OVC013 14/12 A2925 RMK AO2 PK WND 23027/0620 RAB36 SLP901 P0000 T01440122
Loading
Personal Weather Stations






























Interactive Weather Map New forecast layout! Learn more

10-Day Weather Forecast

Advertisements
Track Severe Weather on mobile